Stamey Branch, North Carolina
Current Conditions -  °F | °C
As of 7:55 AM on Thursday 30 Oct 2014 (Local Time) from KTNB Reporting Station
Clear Clear  
Wind Chill: 39°   Ceiling: Unl
Heat Index: 39°   Visibility: 10mi
Dew Point: 35°   Wind: 3mph
Humidity: 86%   Direction: 270°W
Pressure: 30.06"   Gusts: NA
Location:  36.0227°N, 81.9499°W
Report Text: KTNB 301155Z AUTO 27003KT 10SM CLR 04/02 A3006 RMK AO2 70002 T00400019 10062 20040
Loading
Personal Weather Stations






























Interactive Weather Map
Tropical Storm Tracking
New forecast layout! Learn more

10-Day Weather Forecast

Advertisements
Track Severe Weather on mobile